createdAt,value
2019-03-29T00:00:12.213Z,26.7
2019-03-29T00:01:14.410Z,26.8
2019-03-29T00:02:17.072Z,26.8
2019-03-29T00:03:19.626Z,26.8
2019-03-29T00:04:21.820Z,26.6
2019-03-29T00:05:24.305Z,26.6
2019-03-29T00:06:26.774Z,26.9
2019-03-29T00:07:39.227Z,27
2019-03-29T00:08:34.241Z,26.8
2019-03-29T00:09:38.033Z,26.9
2019-03-29T00:10:40.242Z,26.7
2019-03-29T00:11:42.174Z,26.8
2019-03-29T00:12:44.684Z,26.9
2019-03-29T00:13:47.154Z,26.7
2019-03-29T00:14:51.004Z,26.9
2019-03-29T00:15:53.214Z,26.8
2019-03-29T00:16:55.676Z,26.8
2019-03-29T00:17:57.888Z,26.8
2019-03-29T00:19:00.125Z,26.8
2019-03-29T00:20:06.113Z,26.9
2019-03-29T00:21:08.656Z,27
2019-03-29T00:22:11.136Z,26.8
2019-03-29T00:23:13.613Z,26.9
2019-03-29T00:24:16.082Z,27
2019-03-29T00:25:17.998Z,27
2019-03-29T00:26:20.464Z,27
2019-03-29T00:27:22.658Z,26.8
2019-03-29T00:28:25.144Z,26.9
2019-03-29T00:29:27.076Z,27
2019-03-29T00:30:30.794Z,26.8
2019-03-29T00:31:33.277Z,27
2019-03-29T00:32:35.763Z,27
2019-03-29T00:33:38.295Z,27
2019-03-29T00:34:41.297Z,26.9
2019-03-29T00:35:44.197Z,27
2019-03-29T00:36:46.678Z,27
2019-03-29T00:37:53.620Z,27.2
2019-03-29T00:38:53.928Z,27.2
2019-03-29T00:39:56.397Z,27.2
2019-03-29T00:40:58.994Z,27.2
2019-03-29T00:42:01.486Z,27.3
2019-03-29T00:43:03.958Z,27
2019-03-29T00:44:06.155Z,27
2019-03-29T00:45:08.064Z,27.1
2019-03-29T00:46:10.381Z,27.1
2019-03-29T00:47:13.904Z,27.3
2019-03-29T00:48:16.368Z,27.5
2019-03-29T00:49:18.842Z,27.4
2019-03-29T00:50:21.316Z,27.2
2019-03-29T00:51:24.197Z,27.3
2019-03-29T00:52:27.336Z,27.3
2019-03-29T00:53:29.825Z,27.3
2019-03-29T00:54:32.296Z,27.3
2019-03-29T00:55:34.776Z,27.4
2019-03-29T00:56:37.312Z,27.2
2019-03-29T00:57:41.056Z,27.4
2019-03-29T00:58:43.572Z,27.4
2019-03-29T00:59:45.776Z,27.4
2019-03-29T01:00:48.244Z,27.5
2019-03-29T01:01:50.526Z,27.4
2019-03-29T01:02:54.014Z,27.6
2019-03-29T01:03:56.506Z,27.5
2019-03-29T01:04:58.694Z,27.4
2019-03-29T01:06:00.898Z,27.4
2019-03-29T01:07:03.389Z,27.4
2019-03-29T01:08:08.649Z,27.4
2019-03-29T01:09:11.958Z,27.5
2019-03-29T01:10:14.432Z,27.5
2019-03-29T01:11:16.906Z,27.6
2019-03-29T01:12:19.118Z,27.4
2019-03-29T01:13:21.596Z,27.4
2019-03-29T01:14:25.378Z,27.4
2019-03-29T01:15:27.849Z,27.6
2019-03-29T01:16:30.043Z,27.4
2019-03-29T01:17:32.531Z,27.3
2019-03-29T01:18:34.478Z,27.5
2019-03-29T01:19:37.814Z,27.4
2019-03-29T01:20:40.008Z,27.4
2019-03-29T01:21:42.246Z,27.6
2019-03-29T01:22:44.180Z,27.5
2019-03-29T01:23:46.387Z,27.4
2019-03-29T01:24:48.860Z,27.6
2019-03-29T01:25:50.772Z,27.5
2019-03-29T01:26:53.351Z,27.4
2019-03-29T01:27:55.810Z,27.6
2019-03-29T01:28:58.017Z,27.6
2019-03-29T01:30:00.486Z,27.4
2019-03-29T01:31:02.712Z,27.5
2019-03-29T01:32:04.354Z,27.6
2019-03-29T01:33:07.299Z,27.4
2019-03-29T01:34:09.772Z,27.4
2019-03-29T01:35:12.241Z,27.5
2019-03-29T01:36:14.455Z,27.5
2019-03-29T01:37:16.391Z,27.4
2019-03-29T01:38:21.954Z,27.4
2019-03-29T01:39:23.594Z,27.6
2019-03-29T01:40:26.072Z,27.6
2019-03-29T01:41:28.618Z,27.5
2019-03-29T01:42:31.110Z,27.5
2019-03-29T01:43:33.312Z,27.6
2019-03-29T01:44:36.965Z,27.5
2019-03-29T01:45:39.458Z,27.4
2019-03-29T01:46:41.940Z,27.5
2019-03-29T01:47:44.132Z,27.5
2019-03-29T01:48:46.620Z,27.6
2019-03-29T01:49:50.521Z,27.6
2019-03-29T01:50:53.016Z,27.6
2019-03-29T01:51:55.486Z,27.6
2019-03-29T01:52:57.668Z,27.4
2019-03-29T01:53:59.882Z,27.6
2019-03-29T01:55:02.374Z,27.5
2019-03-29T01:56:04.543Z,27.4
2019-03-29T01:57:06.967Z,27.5
2019-03-29T01:58:09.480Z,27.5
2019-03-29T01:59:11.965Z,27.4
2019-03-29T02:00:14.168Z,27.5
2019-03-29T02:01:16.369Z,27.5
2019-03-29T02:02:18.831Z,27.7
2019-03-29T02:03:22.446Z,27.6
2019-03-29T02:04:24.920Z,27.6
2019-03-29T02:05:27.759Z,27.7
2019-03-29T02:06:30.452Z,27.5
2019-03-29T02:07:32.966Z,27.5
2019-03-29T02:08:35.809Z,27.6
2019-03-29T02:09:39.626Z,27.7
2019-03-29T02:10:42.089Z,27.5
2019-03-29T02:11:44.555Z,27.4
2019-03-29T02:12:46.758Z,27.7
2019-03-29T02:13:48.699Z,27.6
2019-03-29T02:14:52.382Z,27.8
2019-03-29T02:15:54.851Z,27.6
2019-03-29T02:16:56.744Z,27.5
2019-03-29T02:17:58.719Z,27.6
2019-03-29T02:19:01.230Z,27.6
2019-03-29T02:20:03.494Z,27.8
2019-03-29T02:21:05.973Z,27.5
2019-03-29T02:22:09.067Z,27.8
2019-03-29T02:23:11.588Z,27.6
2019-03-29T02:24:13.496Z,27.7
2019-03-29T02:25:16.111Z,27.6
2019-03-29T02:26:18.584Z,27.7
2019-03-29T02:27:20.522Z,27.7
2019-03-29T02:28:23.003Z,27.8
2019-03-29T02:29:25.481Z,27.5
2019-03-29T02:30:27.707Z,27.8
2019-03-29T02:31:34.659Z,27.7
2019-03-29T02:32:36.572Z,27.6
2019-03-29T02:33:38.481Z,27.7
2019-03-29T02:34:41.011Z,27.6
2019-03-29T02:35:46.420Z,27.5
2019-03-29T02:36:48.919Z,27.7
2019-03-29T02:37:51.389Z,27.8
2019-03-29T02:38:55.917Z,27.6
2019-03-29T02:39:58.878Z,27.5
2019-03-29T02:41:01.248Z,27.7
2019-03-29T02:42:03.798Z,27.7
2019-03-29T02:43:06.584Z,27.8
2019-03-29T02:44:11.250Z,27.7
2019-03-29T02:45:13.510Z,27.5
2019-03-29T02:46:15.988Z,27.4
2019-03-29T02:47:18.469Z,27.6
2019-03-29T02:48:22.655Z,27.6
2019-03-29T02:49:25.127Z,27.7
2019-03-29T02:50:27.354Z,27.7
2019-03-29T02:51:29.529Z,27.5
2019-03-29T02:52:34.230Z,27.7
2019-03-29T02:53:36.776Z,27.7
2019-03-29T02:54:38.995Z,27.8
2019-03-29T02:55:41.479Z,27.8
2019-03-29T02:56:43.954Z,27.5
2019-03-29T02:57:46.427Z,27.7
2019-03-29T02:58:48.671Z,27.6
2019-03-29T02:59:51.152Z,27.6
2019-03-29T03:00:53.617Z,27.6
2019-03-29T03:01:55.878Z,27.7
2019-03-29T03:02:58.348Z,27.8
2019-03-29T03:04:00.818Z,27.8
2019-03-29T03:05:03.298Z,27.9
2019-03-29T03:06:05.778Z,27.7
2019-03-29T03:07:08.241Z,27.7
2019-03-29T03:08:10.716Z,27.8
2019-03-29T03:09:14.660Z,27.5
2019-03-29T03:10:17.295Z,27.8
2019-03-29T03:11:19.217Z,27.7
2019-03-29T03:12:21.705Z,27.8
2019-03-29T03:13:24.196Z,27.7
2019-03-29T03:14:26.709Z,27.7
2019-03-29T03:15:29.198Z,27.8
2019-03-29T03:16:31.395Z,27.9
2019-03-29T03:17:33.853Z,27.7
2019-03-29T03:18:36.330Z,27.7
2019-03-29T03:19:38.879Z,27.8
2019-03-29T03:20:41.102Z,27.5
2019-03-29T03:21:43.606Z,27.8
2019-03-29T03:22:46.115Z,27.8
2019-03-29T03:23:48.592Z,27.7
2019-03-29T03:24:50.814Z,28
2019-03-29T03:25:53.159Z,27.5
2019-03-29T03:26:55.712Z,27.7
2019-03-29T03:27:57.906Z,27.8
2019-03-29T03:29:00.419Z,27.8
2019-03-29T03:30:02.886Z,27.7
2019-03-29T03:31:05.111Z,27.7
2019-03-29T03:32:07.594Z,27.6
2019-03-29T03:33:09.856Z,27.7
2019-03-29T03:34:11.868Z,27.6
2019-03-29T03:35:14.060Z,27.5
2019-03-29T03:36:16.592Z,27.8
2019-03-29T03:37:19.073Z,27.5
2019-03-29T03:38:21.536Z,27.6
2019-03-29T03:39:31.817Z,27.5
2019-03-29T03:40:28.890Z,27.6
2019-03-29T03:41:31.065Z,27.6
2019-03-29T03:42:33.636Z,27.6
2019-03-29T03:43:36.108Z,27.7
2019-03-29T03:44:38.330Z,27.5
2019-03-29T03:45:40.530Z,27.6
2019-03-29T03:46:43.076Z,27.7
2019-03-29T03:47:45.556Z,27.6
2019-03-29T03:48:48.027Z,27.6
2019-03-29T03:49:50.501Z,27.5
2019-03-29T03:50:52.965Z,27.7
2019-03-29T03:51:54.952Z,27.7
2019-03-29T03:52:57.165Z,27.4
2019-03-29T03:53:59.377Z,27.6
2019-03-29T03:55:01.868Z,27.6
2019-03-29T03:56:04.337Z,27.5
2019-03-29T03:57:06.816Z,27.5
2019-03-29T03:58:09.291Z,27.5
2019-03-29T03:59:11.766Z,27.7
2019-03-29T04:00:13.978Z,27.8
2019-03-29T04:01:16.463Z,27.7
2019-03-29T04:02:18.683Z,27.6
2019-03-29T04:03:21.205Z,27.6
2019-03-29T04:04:23.704Z,27.6
2019-03-29T04:05:26.194Z,27.5
2019-03-29T04:06:28.734Z,27.5
2019-03-29T04:07:31.225Z,27.4
2019-03-29T04:08:33.697Z,27.5
2019-03-29T04:09:48.920Z,27.5
2019-03-29T04:10:42.223Z,27.5
2019-03-29T04:11:44.908Z,27.6
2019-03-29T04:12:47.437Z,27.3
2019-03-29T04:13:49.910Z,27.3
2019-03-29T04:14:52.385Z,27.6
2019-03-29T04:15:54.964Z,27.5
2019-03-29T04:16:57.431Z,27.5
2019-03-29T04:17:59.921Z,27.3
2019-03-29T04:19:02.400Z,27.4
2019-03-29T04:20:05.036Z,27.5
2019-03-29T04:21:07.236Z,27.3
2019-03-29T04:22:09.716Z,27.4
2019-03-29T04:23:11.737Z,27.2
2019-03-29T04:24:13.946Z,27.3
2019-03-29T04:25:16.418Z,27.2
2019-03-29T04:26:18.624Z,27.3
2019-03-29T04:27:20.554Z,27.2
2019-03-29T04:28:23.096Z,27.2
2019-03-29T04:29:25.691Z,26.9
2019-03-29T04:30:28.262Z,27.3
2019-03-29T04:31:30.523Z,27.3
2019-03-29T04:32:33.036Z,27.5
2019-03-29T04:33:35.547Z,27.1
2019-03-29T04:34:37.779Z,27.1
2019-03-29T04:35:39.979Z,27
2019-03-29T04:36:42.453Z,27
2019-03-29T04:37:44.925Z,27.2
2019-03-29T04:38:47.417Z,27.2
2019-03-29T04:40:06.066Z,27
2019-03-29T04:40:54.886Z,27.3
2019-03-29T04:41:57.126Z,27
2019-03-29T04:42:59.614Z,27.1
2019-03-29T04:44:01.826Z,27
2019-03-29T04:45:04.315Z,27
2019-03-29T04:46:06.896Z,27
2019-03-29T04:47:09.766Z,27.1
2019-03-29T04:48:12.246Z,27
2019-03-29T04:49:14.722Z,27
2019-03-29T04:50:16.938Z,27
2019-03-29T04:51:19.534Z,27
2019-03-29T04:52:21.738Z,27.2
2019-03-29T04:53:24.205Z,27.1
2019-03-29T04:54:26.674Z,26.9
2019-03-29T04:55:28.583Z,27.1
2019-03-29T04:56:31.054Z,27.1
2019-03-29T04:57:33.236Z,27.1
2019-03-29T04:58:35.732Z,27.1
2019-03-29T04:59:37.933Z,27.1
2019-03-29T05:00:39.876Z,27
2019-03-29T05:01:41.775Z,27
2019-03-29T05:02:44.256Z,26.9
2019-03-29T05:03:46.452Z,27.1
2019-03-29T05:04:48.918Z,26.9
2019-03-29T05:05:51.132Z,26.8
2019-03-29T05:06:53.619Z,27
2019-03-29T05:07:56.092Z,26.9
2019-03-29T05:08:58.652Z,26.9
2019-03-29T05:10:00.862Z,26.9
2019-03-29T05:11:03.354Z,27
2019-03-29T05:12:05.919Z,26.9
2019-03-29T05:13:08.409Z,27
2019-03-29T05:14:10.886Z,26.9
2019-03-29T05:15:13.096Z,26.9
2019-03-29T05:16:15.289Z,26.9
2019-03-29T05:17:17.763Z,26.8
2019-03-29T05:18:19.725Z,27
2019-03-29T05:19:22.009Z,26.7
2019-03-29T05:20:24.225Z,26.9
2019-03-29T05:21:26.436Z,26.8
2019-03-29T05:22:28.640Z,26.7
2019-03-29T05:23:30.855Z,27
2019-03-29T05:24:33.023Z,26.9
2019-03-29T05:25:35.224Z,26.8
2019-03-29T05:26:37.384Z,26.8
2019-03-29T05:27:39.853Z,26.9
2019-03-29T05:28:42.334Z,26.8
2019-03-29T05:29:44.543Z,27
2019-03-29T05:30:46.715Z,26.9
2019-03-29T05:31:49.270Z,26.8
2019-03-29T05:32:55.663Z,27
2019-03-29T05:33:57.880Z,26.8
2019-03-29T05:34:59.843Z,26.9
2019-03-29T05:36:02.071Z,26.9
2019-03-29T05:37:04.544Z,26.9
2019-03-29T05:38:06.472Z,26.8
2019-03-29T05:39:08.720Z,27
2019-03-29T05:40:11.189Z,26.9
2019-03-29T05:41:13.664Z,27
2019-03-29T05:42:16.133Z,26.8
2019-03-29T05:43:18.061Z,27
2019-03-29T05:44:20.280Z,27
2019-03-29T05:45:22.481Z,26.7
2019-03-29T05:46:24.950Z,26.7
2019-03-29T05:47:27.437Z,26.9
2019-03-29T05:48:29.640Z,27
2019-03-29T05:49:31.835Z,26.6
2019-03-29T05:50:36.660Z,26.8
2019-03-29T05:51:39.027Z,26.7
2019-03-29T05:52:41.304Z,26.7
2019-03-29T05:53:43.794Z,26.9
2019-03-29T05:54:45.994Z,26.8
2019-03-29T05:55:48.528Z,26.9
2019-03-29T05:56:51.021Z,26.9
2019-03-29T05:57:53.493Z,26.6
2019-03-29T05:58:55.968Z,26.8
2019-03-29T05:59:58.444Z,26.8
2019-03-29T06:01:00.873Z,27
2019-03-29T06:02:03.072Z,26.6
2019-03-29T06:03:05.547Z,26.6
2019-03-29T06:04:11.739Z,26.7
2019-03-29T06:05:13.913Z,27
2019-03-29T06:06:16.410Z,26.9
2019-03-29T06:07:18.598Z,26.6
2019-03-29T06:08:21.082Z,27
2019-03-29T06:09:23.021Z,26.7
2019-03-29T06:10:25.496Z,26.7
2019-03-29T06:11:27.688Z,26.7
2019-03-29T06:12:30.204Z,26.7
2019-03-29T06:13:32.245Z,26.8
2019-03-29T06:14:34.743Z,26.5
2019-03-29T06:15:37.241Z,26.6
2019-03-29T06:16:39.719Z,26.9
2019-03-29T06:17:48.254Z,26.7
2019-03-29T06:18:46.899Z,26.8
2019-03-29T06:19:49.134Z,26.9
2019-03-29T06:20:51.606Z,26.8
2019-03-29T06:21:53.533Z,26.7
2019-03-29T06:22:56.014Z,26.8
2019-03-29T06:23:58.503Z,26.8
2019-03-29T06:25:00.985Z,27
2019-03-29T06:26:03.459Z,26.8
2019-03-29T06:27:05.956Z,26.8
2019-03-29T06:28:08.173Z,27.1
2019-03-29T06:29:10.373Z,26.7
2019-03-29T06:30:12.567Z,27
2019-03-29T06:31:15.051Z,26.7
2019-03-29T06:32:17.529Z,26.7
2019-03-29T06:33:19.454Z,26.6
2019-03-29T06:34:21.652Z,26.5
2019-03-29T06:35:23.815Z,26.7
2019-03-29T06:36:26.290Z,26.5
2019-03-29T06:37:28.768Z,26.7
2019-03-29T06:38:31.245Z,26.8
2019-03-29T06:39:33.727Z,26.8
2019-03-29T06:40:36.195Z,26.9
2019-03-29T06:41:38.395Z,26.6
2019-03-29T06:42:40.314Z,26.6
2019-03-29T06:43:42.518Z,26.9
2019-03-29T06:44:44.981Z,26.5
2019-03-29T06:45:48.367Z,26.8
2019-03-29T06:46:50.912Z,26.6
2019-03-29T06:47:53.117Z,26.8
2019-03-29T06:48:55.639Z,26.9
2019-03-29T06:49:57.831Z,26.7
2019-03-29T06:51:00.305Z,26.8
2019-03-29T06:52:02.775Z,26.7
2019-03-29T06:53:05.006Z,26.7
2019-03-29T06:54:07.231Z,26.7
2019-03-29T06:55:09.417Z,26.8
2019-03-29T06:56:11.882Z,26.6
2019-03-29T06:57:14.089Z,26.6
2019-03-29T06:58:16.600Z,26.7
2019-03-29T06:59:18.521Z,26.7
2019-03-29T07:00:20.466Z,26.6
2019-03-29T07:01:22.957Z,26.8
2019-03-29T07:02:25.410Z,26.5
2019-03-29T07:03:27.877Z,26.7
2019-03-29T07:04:30.051Z,26.6
2019-03-29T07:05:32.531Z,26.7
2019-03-29T07:06:35.012Z,26.7
2019-03-29T07:07:37.194Z,26.7
2019-03-29T07:08:39.675Z,26.7
2019-03-29T07:09:42.153Z,26.8
2019-03-29T07:10:44.354Z,26.7
2019-03-29T07:11:46.846Z,26.8
2019-03-29T07:12:49.327Z,26.7
2019-03-29T07:13:57.587Z,26.8
2019-03-29T07:14:56.785Z,26.7
2019-03-29T07:15:59.007Z,26.6
2019-03-29T07:17:01.491Z,26.6
2019-03-29T07:18:03.961Z,26.8
2019-03-29T07:19:06.446Z,26.8
2019-03-29T07:20:08.646Z,26.6
2019-03-29T07:21:21.147Z,26.5
2019-03-29T07:22:16.114Z,26.6
2019-03-29T07:23:18.316Z,26.6
2019-03-29T07:24:20.545Z,26.7
2019-03-29T07:25:23.033Z,26.7
2019-03-29T07:26:25.502Z,26.6
2019-03-29T07:27:27.975Z,26.5
2019-03-29T07:28:34.165Z,26.7
2019-03-29T07:29:36.643Z,26.8
2019-03-29T07:30:38.827Z,26.6
2019-03-29T07:31:41.316Z,26.8
2019-03-29T07:32:43.496Z,26.6
2019-03-29T07:33:45.973Z,26.7
2019-03-29T07:34:49.205Z,26.6
2019-03-29T07:35:51.317Z,26.7
2019-03-29T07:36:53.504Z,26.7
2019-03-29T07:37:55.973Z,26.8
2019-03-29T07:38:58.455Z,26.6
2019-03-29T07:40:00.634Z,26.7
2019-03-29T07:41:03.112Z,26.5
2019-03-29T07:42:05.581Z,26.6
2019-03-29T07:43:08.089Z,26.6
2019-03-29T07:44:10.647Z,26.7
2019-03-29T07:45:12.875Z,26.7
2019-03-29T07:46:15.349Z,26.5
2019-03-29T07:47:17.809Z,26.8
2019-03-29T07:48:20.282Z,26.7
2019-03-29T07:49:22.475Z,26.7
2019-03-29T07:50:24.945Z,26.7
2019-03-29T07:51:26.899Z,26.6
2019-03-29T07:52:29.367Z,26.8
2019-03-29T07:53:31.838Z,26.7
2019-03-29T07:54:34.015Z,26.8
2019-03-29T07:55:37.299Z,26.6
2019-03-29T07:56:40.038Z,26.8
2019-03-29T07:57:42.227Z,26.9
2019-03-29T07:58:44.703Z,27
2019-03-29T07:59:47.177Z,26.5
2019-03-29T08:00:51.078Z,26.7
2019-03-29T08:01:53.535Z,26.6
2019-03-29T08:02:55.793Z,26.7
2019-03-29T08:03:58.341Z,26.6
2019-03-29T08:05:00.819Z,26.6
2019-03-29T08:06:03.030Z,26.8
2019-03-29T08:07:06.217Z,26.7
2019-03-29T08:08:22.632Z,26.8
2019-03-29T08:09:21.968Z,26.7
2019-03-29T08:10:24.393Z,26.7
2019-03-29T08:11:26.204Z,26.8
2019-03-29T08:12:28.504Z,26.7
2019-03-29T08:13:30.797Z,26.7
2019-03-29T08:14:32.975Z,26.7
2019-03-29T08:15:35.456Z,26.6
2019-03-29T08:16:37.935Z,26.6
2019-03-29T08:17:40.134Z,26.8
2019-03-29T08:18:42.618Z,26.7
2019-03-29T08:19:44.811Z,26.5
2019-03-29T08:20:46.705Z,26.4
2019-03-29T08:21:49.200Z,26.6
2019-03-29T08:22:51.397Z,26.7
2019-03-29T08:23:54.225Z,26.8
2019-03-29T08:24:59.157Z,26.7
2019-03-29T08:26:01.689Z,26.7
2019-03-29T08:27:04.190Z,26.6
2019-03-29T08:28:06.664Z,26.8
2019-03-29T08:29:09.199Z,26.7
2019-03-29T08:30:11.548Z,26.7
2019-03-29T08:31:13.485Z,26.7
2019-03-29T08:32:15.969Z,26.8
2019-03-29T08:33:17.915Z,26.7
2019-03-29T08:34:20.116Z,26.7
2019-03-29T08:35:22.615Z,26.7
2019-03-29T08:36:25.095Z,26.7
2019-03-29T08:37:27.284Z,26.5
2019-03-29T08:38:29.765Z,26.8
2019-03-29T08:39:31.959Z,26.7
2019-03-29T08:40:33.883Z,26.6
2019-03-29T08:41:36.363Z,26.7
2019-03-29T08:42:38.825Z,26.6
2019-03-29T08:43:41.311Z,26.7
2019-03-29T08:44:43.785Z,26.7
2019-03-29T08:45:45.710Z,26.8
2019-03-29T08:46:48.172Z,26.8
2019-03-29T08:47:50.647Z,26.7
2019-03-29T08:48:53.115Z,26.8
2019-03-29T08:49:55.606Z,26.5
2019-03-29T08:50:57.808Z,26.6
2019-03-29T08:52:00.291Z,26.5
2019-03-29T08:53:02.849Z,26.7
2019-03-29T08:54:05.335Z,26.7
2019-03-29T08:55:07.553Z,26.7
2019-03-29T08:56:10.033Z,26.6
2019-03-29T08:57:12.514Z,26.8
2019-03-29T08:58:14.984Z,26.8
2019-03-29T08:59:17.874Z,26.6
2019-03-29T09:00:20.355Z,26.7
2019-03-29T09:01:22.825Z,26.8
2019-03-29T09:02:25.406Z,26.6
2019-03-29T09:03:27.969Z,26.5
2019-03-29T09:04:30.443Z,26.5
2019-03-29T09:05:32.915Z,26.6
2019-03-29T09:06:35.163Z,26.6
2019-03-29T09:07:44.283Z,26.6
2019-03-29T09:08:42.119Z,26.5
2019-03-29T09:09:46.342Z,26.7
2019-03-29T09:10:48.703Z,26.6
2019-03-29T09:11:51.184Z,26.6
2019-03-29T09:12:53.389Z,26.6
2019-03-29T09:13:55.882Z,26.5
2019-03-29T09:14:58.364Z,26.4
2019-03-29T09:16:04.542Z,26.6
2019-03-29T09:17:07.008Z,26.6
2019-03-29T09:18:09.235Z,26.7
2019-03-29T09:19:11.720Z,26.5
2019-03-29T09:20:14.195Z,26.6
2019-03-29T09:21:16.429Z,26.7
2019-03-29T09:22:18.623Z,26.5
2019-03-29T09:23:21.106Z,26.6
2019-03-29T09:24:23.307Z,26.6
2019-03-29T09:25:25.772Z,26.7
2019-03-29T09:26:27.977Z,26.8
2019-03-29T09:27:31.920Z,26.6
2019-03-29T09:28:34.574Z,26.5
2019-03-29T09:29:36.750Z,26.4
2019-03-29T09:30:39.021Z,26.5
2019-03-29T09:31:41.238Z,26.8
2019-03-29T09:32:43.725Z,26.6
2019-03-29T09:33:45.653Z,26.8
2019-03-29T09:34:48.117Z,26.5
2019-03-29T09:35:50.604Z,26.4
2019-03-29T09:36:52.789Z,26.7
2019-03-29T09:37:56.581Z,26.6
2019-03-29T09:38:59.206Z,26.7
2019-03-29T09:40:01.687Z,26.6
2019-03-29T09:41:03.902Z,26.4
2019-03-29T09:42:09.381Z,26.7
2019-03-29T09:43:11.385Z,26.5
2019-03-29T09:44:13.856Z,26.8
2019-03-29T09:45:16.089Z,26.5
2019-03-29T09:46:18.572Z,26.5
2019-03-29T09:47:21.039Z,26.7
2019-03-29T09:48:23.509Z,26.6
2019-03-29T09:49:25.970Z,26.7
2019-03-29T09:50:28.186Z,26.6
2019-03-29T09:51:30.660Z,26.8
2019-03-29T09:52:37.595Z,26.6
2019-03-29T09:53:41.126Z,26.7
2019-03-29T09:54:43.871Z,26.6
2019-03-29T09:55:46.365Z,26.8
2019-03-29T09:56:48.613Z,26.8
2019-03-29T09:57:51.083Z,26.7
2019-03-29T09:58:53.277Z,26.7
2019-03-29T09:59:55.759Z,26.7
2019-03-29T10:00:58.241Z,26.9
2019-03-29T10:02:00.980Z,26.5
2019-03-29T10:03:03.475Z,26.6
2019-03-29T10:04:05.952Z,26.7
2019-03-29T10:05:08.156Z,26.8
2019-03-29T10:06:10.357Z,26.6
2019-03-29T10:07:16.808Z,26.5
2019-03-29T10:08:19.278Z,26.9
2019-03-29T10:09:21.850Z,26.8
2019-03-29T10:10:24.056Z,26.7
2019-03-29T10:11:26.521Z,26.5
2019-03-29T10:12:42.252Z,26.7
2019-03-29T10:13:33.987Z,26.8
2019-03-29T10:14:36.175Z,26.7
2019-03-29T10:15:38.657Z,26.7
2019-03-29T10:16:40.857Z,26.8
2019-03-29T10:17:43.342Z,27
2019-03-29T10:18:45.818Z,26.8
2019-03-29T10:19:49.810Z,26.6
2019-03-29T10:20:52.441Z,26.7
2019-03-29T10:21:54.660Z,27
2019-03-29T10:22:56.871Z,26.6
2019-03-29T10:23:59.123Z,26.7
2019-03-29T10:25:02.330Z,26.7
2019-03-29T10:26:08.199Z,26.9
2019-03-29T10:27:10.675Z,26.8
2019-03-29T10:28:12.886Z,26.7
2019-03-29T10:29:14.827Z,26.9
2019-03-29T10:30:17.295Z,26.8
2019-03-29T10:31:31.469Z,26.9
2019-03-29T10:32:24.756Z,26.7
2019-03-29T10:33:27.238Z,26.8
2019-03-29T10:34:29.723Z,26.8
2019-03-29T10:35:31.933Z,26.9
2019-03-29T10:36:34.155Z,26.8
2019-03-29T10:37:36.628Z,26.6
2019-03-29T10:38:39.111Z,26.9
2019-03-29T10:39:41.586Z,26.6
2019-03-29T10:40:43.782Z,26.6
2019-03-29T10:41:46.246Z,26.9
2019-03-29T10:42:57.370Z,26.6
2019-03-29T10:43:53.732Z,26.9
2019-03-29T10:44:55.682Z,26.9
2019-03-29T10:45:58.156Z,26.6
2019-03-29T10:47:00.357Z,26.7
2019-03-29T10:48:02.832Z,26.7
2019-03-29T10:49:05.137Z,26.6
2019-03-29T10:50:07.737Z,26.7
2019-03-29T10:51:09.784Z,26.7
2019-03-29T10:52:12.266Z,26.8
2019-03-29T10:53:14.736Z,26.6
2019-03-29T10:54:16.927Z,26.7
2019-03-29T10:55:19.394Z,26.7
2019-03-29T10:56:33.188Z,26.7
2019-03-29T10:57:26.862Z,26.7
2019-03-29T10:58:29.337Z,26.8
2019-03-29T10:59:31.584Z,27
2019-03-29T11:00:34.058Z,26.7
2019-03-29T11:01:36.243Z,26.9
2019-03-29T11:02:38.437Z,26.9
2019-03-29T11:03:40.914Z,26.7
2019-03-29T11:04:43.097Z,26.8
2019-03-29T11:05:45.345Z,26.6
2019-03-29T11:06:47.251Z,26.7
2019-03-29T11:07:49.726Z,26.8
2019-03-29T11:08:52.213Z,26.5
2019-03-29T11:09:54.695Z,26.6
2019-03-29T11:10:57.162Z,26.7
2019-03-29T11:11:59.085Z,26.8
2019-03-29T11:13:12.228Z,26.7
2019-03-29T11:14:06.545Z,26.7
2019-03-29T11:15:08.451Z,26.5
2019-03-29T11:16:10.932Z,26.7
2019-03-29T11:17:13.485Z,26.6
2019-03-29T11:18:15.979Z,26.8
2019-03-29T11:19:18.446Z,26.8
2019-03-29T11:20:20.934Z,26.9
2019-03-29T11:21:23.413Z,26.7
2019-03-29T11:22:25.896Z,26.6
2019-03-29T11:23:27.810Z,26.9
2019-03-29T11:24:30.282Z,26.8
2019-03-29T11:25:32.754Z,26.9
2019-03-29T11:26:34.962Z,26.8
2019-03-29T11:27:37.455Z,26.9
2019-03-29T11:28:39.935Z,26.9
2019-03-29T11:29:42.155Z,26.8
2019-03-29T11:30:44.628Z,26.8
2019-03-29T11:31:46.814Z,26.8
2019-03-29T11:32:49.009Z,26.7
2019-03-29T11:33:51.480Z,26.7
2019-03-29T11:34:53.948Z,26.7
2019-03-29T11:35:56.455Z,26.9
2019-03-29T11:36:58.644Z,26.8
2019-03-29T11:38:00.854Z,26.8
2019-03-29T11:39:03.086Z,27
2019-03-29T11:40:05.564Z,26.8
2019-03-29T11:41:07.491Z,26.7
2019-03-29T11:42:09.727Z,26.7
2019-03-29T11:43:25.616Z,26.9
2019-03-29T11:44:17.193Z,26.7
2019-03-29T11:45:19.665Z,26.7
2019-03-29T11:46:22.156Z,26.9
2019-03-29T11:47:24.631Z,26.6
2019-03-29T11:48:29.532Z,26.7
2019-03-29T11:49:32.094Z,26.9
2019-03-29T11:50:34.309Z,26.9
2019-03-29T11:51:36.214Z,26.9
2019-03-29T11:52:38.120Z,26.6
2019-03-29T11:54:57.184Z,27
2019-03-29T11:55:59.661Z,26.8
2019-03-29T11:57:02.140Z,26.9
2019-03-29T11:58:04.336Z,26.7
2019-03-29T11:59:06.804Z,26.8
2019-03-29T12:00:09.043Z,26.6
2019-03-29T12:01:11.509Z,26.7
2019-03-29T12:02:14.009Z,26.9
2019-03-29T12:03:20.943Z,26.8
2019-03-29T12:04:23.424Z,27
2019-03-29T12:05:25.682Z,26.8
2019-03-29T12:06:28.156Z,26.7
2019-03-29T12:07:30.357Z,26.9
2019-03-29T12:08:32.302Z,27
2019-03-29T12:09:34.775Z,27
2019-03-29T12:10:36.986Z,27
2019-03-29T12:11:39.191Z,26.9
2019-03-29T12:12:40.843Z,26.7
2019-03-29T12:13:43.323Z,26.9
2019-03-29T12:14:45.795Z,26.9
2019-03-29T12:15:48.279Z,26.8
2019-03-29T12:16:50.748Z,26.7
2019-03-29T12:17:53.220Z,26.8
2019-03-29T12:18:55.396Z,26.9
2019-03-29T12:19:57.876Z,26.8
2019-03-29T12:21:00.367Z,27
2019-03-29T12:22:02.842Z,26.8
2019-03-29T12:23:05.336Z,26.8
2019-03-29T12:24:07.804Z,26.8
2019-03-29T12:25:10.300Z,26.9
2019-03-29T12:26:12.805Z,26.8
2019-03-29T12:27:15.274Z,26.9
2019-03-29T12:28:17.756Z,26.8
2019-03-29T12:29:19.981Z,27.1
2019-03-29T12:30:30.964Z,27
2019-03-29T12:31:27.180Z,26.8
2019-03-29T12:32:29.666Z,27
2019-03-29T12:33:31.570Z,26.9
2019-03-29T12:34:33.854Z,26.9
2019-03-29T12:35:36.125Z,26.7
2019-03-29T12:36:38.625Z,26.8
2019-03-29T12:37:40.849Z,26.8
2019-03-29T12:38:43.055Z,26.9
2019-03-29T12:39:45.287Z,27
2019-03-29T12:40:47.782Z,26.9
2019-03-29T12:41:50.276Z,26.9
2019-03-29T12:42:52.854Z,27
2019-03-29T12:43:56.132Z,27.1
2019-03-29T12:44:58.707Z,26.9
2019-03-29T12:46:01.106Z,26.9
2019-03-29T12:47:03.319Z,26.9
2019-03-29T12:48:05.796Z,27
2019-03-29T12:49:08.282Z,26.8
2019-03-29T12:50:10.485Z,26.8
2019-03-29T12:51:12.959Z,26.9
2019-03-29T12:52:15.430Z,26.8
2019-03-29T12:53:17.911Z,26.9
2019-03-29T12:54:20.449Z,26.9
2019-03-29T12:55:23.017Z,27
2019-03-29T12:56:25.663Z,26.8
2019-03-29T12:57:27.846Z,26.9
2019-03-29T12:58:29.792Z,27
2019-03-29T12:59:32.999Z,27
2019-03-29T13:00:35.660Z,26.9
2019-03-29T13:01:39.513Z,26.9
2019-03-29T13:02:42.704Z,27.1
2019-03-29T13:03:45.249Z,27.1
2019-03-29T13:04:47.561Z,27
2019-03-29T13:05:50.453Z,26.8
2019-03-29T13:06:52.938Z,26.9
2019-03-29T13:07:55.138Z,27
2019-03-29T13:08:57.603Z,26.9
2019-03-29T13:09:59.525Z,27
2019-03-29T13:11:02.013Z,27
2019-03-29T13:12:04.496Z,26.9
2019-03-29T13:13:06.974Z,26.9
2019-03-29T13:14:10.718Z,27.1
2019-03-29T13:15:13.355Z,27
2019-03-29T13:16:15.848Z,26.9
2019-03-29T13:17:18.391Z,26.9
2019-03-29T13:18:20.887Z,27
2019-03-29T13:19:23.122Z,27
2019-03-29T13:20:25.294Z,27
2019-03-29T13:21:27.759Z,27
2019-03-29T13:22:30.236Z,27
2019-03-29T13:23:36.201Z,27
2019-03-29T13:24:38.757Z,27
2019-03-29T13:25:41.246Z,27
2019-03-29T13:26:43.727Z,27.1
2019-03-29T13:27:45.920Z,26.8
2019-03-29T13:28:48.415Z,27
2019-03-29T13:29:50.062Z,26.9
2019-03-29T13:30:52.533Z,26.8
2019-03-29T13:31:54.726Z,27.1
2019-03-29T13:32:57.282Z,27.2
2019-03-29T13:33:59.790Z,26.9
2019-03-29T13:35:01.736Z,27
2019-03-29T13:36:04.224Z,27
2019-03-29T13:37:06.432Z,27
2019-03-29T13:38:08.917Z,26.8
2019-03-29T13:39:11.136Z,27
2019-03-29T13:40:13.645Z,27
2019-03-29T13:41:16.130Z,26.8
2019-03-29T13:42:18.600Z,26.8
2019-03-29T13:43:20.893Z,26.9
2019-03-29T13:44:25.382Z,26.9
2019-03-29T13:45:28.370Z,27.1
2019-03-29T13:46:30.827Z,27
2019-03-29T13:47:33.304Z,27
2019-03-29T13:48:35.791Z,27.1
2019-03-29T13:49:38.265Z,27
2019-03-29T13:50:40.759Z,26.9
2019-03-29T13:51:43.234Z,27
2019-03-29T13:52:45.727Z,26.8
2019-03-29T13:53:47.920Z,26.9
2019-03-29T13:54:50.451Z,27
2019-03-29T13:55:52.932Z,27.1
2019-03-29T13:56:55.446Z,26.9
2019-03-29T13:57:57.934Z,26.8
2019-03-29T13:59:00.402Z,26.9
2019-03-29T14:00:02.866Z,27